sensor_id;sensor_type;location;lat;lon;timestamp;P1;durP1;ratioP1;P2;durP2;ratioP2
15285;SDS011;7744;52.172;10.668;2023-05-14T00:01:14;6.57;;;6.00;;
15285;SDS011;7744;52.172;10.668;2023-05-14T00:04:08;7.63;;;6.00;;
15285;SDS011;7744;52.172;10.668;2023-05-14T00:06:50;6.37;;;5.80;;
15285;SDS011;7744;52.172;10.668;2023-05-14T00:09:31;6.77;;;6.23;;
15285;SDS011;7744;52.172;10.668;2023-05-14T00:12:16;6.30;;;5.80;;
15285;SDS011;7744;52.172;10.668;2023-05-14T00:14:57;6.53;;;5.80;;
15285;SDS011;7744;52.172;10.668;2023-05-14T00:17:32;6.80;;;6.20;;
15285;SDS011;7744;52.172;10.668;2023-05-14T00:20:03;6.43;;;5.87;;
15285;SDS011;7744;52.172;10.668;2023-05-14T00:26:02;6.30;;;5.80;;
15285;SDS011;7744;52.172;10.668;2023-05-14T00:28:39;6.60;;;6.07;;
15285;SDS011;7744;52.172;10.668;2023-05-14T00:31:19;6.93;;;6.43;;
15285;SDS011;7744;52.172;10.668;2023-05-14T00:33:59;6.57;;;5.97;;
15285;SDS011;7744;52.172;10.668;2023-05-14T00:36:31;5.97;;;5.47;;
15285;SDS011;7744;52.172;10.668;2023-05-14T00:39:02;6.40;;;5.90;;
15285;SDS011;7744;52.172;10.668;2023-05-14T00:41:39;6.67;;;6.07;;
15285;SDS011;7744;52.172;10.668;2023-05-14T00:44:13;6.87;;;6.27;;
15285;SDS011;7744;52.172;10.668;2023-05-14T00:46:49;6.63;;;6.13;;
15285;SDS011;7744;52.172;10.668;2023-05-14T00:49:34;6.70;;;6.20;;
15285;SDS011;7744;52.172;10.668;2023-05-14T00:52:15;7.27;;;6.63;;
15285;SDS011;7744;52.172;10.668;2023-05-14T00:54:43;7.07;;;6.47;;
15285;SDS011;7744;52.172;10.668;2023-05-14T00:57:19;6.87;;;6.27;;
15285;SDS011;7744;52.172;10.668;2023-05-14T00:59:54;6.20;;;5.70;;
15285;SDS011;7744;52.172;10.668;2023-05-14T01:02:31;6.27;;;5.77;;
15285;SDS011;7744;52.172;10.668;2023-05-14T01:05:12;6.27;;;5.77;;
15285;SDS011;7744;52.172;10.668;2023-05-14T01:16:13;6.83;;;6.23;;
15285;SDS011;7744;52.172;10.668;2023-05-14T01:18:53;6.40;;;5.90;;
15285;SDS011;7744;52.172;10.668;2023-05-14T01:24:14;6.93;;;6.33;;
15285;SDS011;7744;52.172;10.668;2023-05-14T01:26:40;6.40;;;5.80;;
15285;SDS011;7744;52.172;10.668;2023-05-14T01:29:14;6.23;;;5.63;;
15285;SDS011;7744;52.172;10.668;2023-05-14T01:31:50;6.20;;;5.60;;
15285;SDS011;7744;52.172;10.668;2023-05-14T01:34:24;6.10;;;5.60;;
15285;SDS011;7744;52.172;10.668;2023-05-14T01:36:55;5.90;;;5.40;;
15285;SDS011;7744;52.172;10.668;2023-05-14T01:39:30;5.83;;;5.30;;
15285;SDS011;7744;52.172;10.668;2023-05-14T01:42:13;5.77;;;5.13;;
15285;SDS011;7744;52.172;10.668;2023-05-14T01:44:48;5.97;;;5.47;;
15285;SDS011;7744;52.172;10.668;2023-05-14T01:47:28;6.70;;;5.70;;
15285;SDS011;7744;52.172;10.668;2023-05-14T01:49:54;6.40;;;4.90;;
15285;SDS011;7744;52.172;10.668;2023-05-14T01:52:28;6.33;;;5.73;;
15285;SDS011;7744;52.172;10.668;2023-05-14T01:55:23;5.60;;;5.10;;
15285;SDS011;7744;52.172;10.668;2023-05-14T01:57:57;6.00;;;5.50;;
15285;SDS011;7744;52.172;10.668;2023-05-14T05:59:55;5.38;;;4.97;;
15285;SDS011;7744;52.172;10.668;2023-05-14T06:02:21;5.15;;;4.75;;
15285;SDS011;7744;52.172;10.668;2023-05-14T06:04:46;5.47;;;5.07;;
15285;SDS011;7744;52.172;10.668;2023-05-14T06:07:12;5.80;;;5.40;;
15285;SDS011;7744;52.172;10.668;2023-05-14T06:09:38;6.20;;;5.70;;
15285;SDS011;7744;52.172;10.668;2023-05-14T06:12:04;6.10;;;5.60;;
15285;SDS011;7744;52.172;10.668;2023-05-14T06:14:30;5.90;;;5.50;;
15285;SDS011;7744;52.172;10.668;2023-05-14T06:16:55;7.28;;;6.20;;
15285;SDS011;7744;52.172;10.668;2023-05-14T06:19:22;6.65;;;6.03;;
15285;SDS011;7744;52.172;10.668;2023-05-14T06:21:48;6.28;;;5.78;;
15285;SDS011;7744;52.172;10.668;2023-05-14T06:24:13;6.65;;;6.05;;
15285;SDS011;7744;52.172;10.668;2023-05-14T06:26:40;7.25;;;6.50;;
15285;SDS011;7744;52.172;10.668;2023-05-14T06:29:06;6.28;;;5.78;;
15285;SDS011;7744;52.172;10.668;2023-05-14T06:31:33;6.68;;;6.15;;
15285;SDS011;7744;52.172;10.668;2023-05-14T06:33:59;6.75;;;6.25;;
15285;SDS011;7744;52.172;10.668;2023-05-14T06:36:25;7.10;;;6.55;;
15285;SDS011;7744;52.172;10.668;2023-05-14T06:38:51;7.80;;;7.13;;
15285;SDS011;7744;52.172;10.668;2023-05-14T06:41:16;6.95;;;6.20;;
15285;SDS011;7744;52.172;10.668;2023-05-14T06:43:42;6.40;;;5.90;;
15285;SDS011;7744;52.172;10.668;2023-05-14T06:46:07;5.72;;;5.30;;
15285;SDS011;7744;52.172;10.668;2023-05-14T06:48:33;6.05;;;5.55;;
15285;SDS011;7744;52.172;10.668;2023-05-14T06:50:58;6.82;;;6.13;;
15285;SDS011;7744;52.172;10.668;2023-05-14T06:53:24;7.13;;;6.53;;
15285;SDS011;7744;52.172;10.668;2023-05-14T06:55:50;6.88;;;6.28;;
15285;SDS011;7744;52.172;10.668;2023-05-14T06:58:15;6.78;;;6.28;;
15285;SDS011;7744;52.172;10.668;2023-05-14T07:00:41;6.65;;;6.15;;
15285;SDS011;7744;52.172;10.668;2023-05-14T07:03:07;7.65;;;7.05;;
15285;SDS011;7744;52.172;10.668;2023-05-14T07:05:32;6.75;;;6.15;;
15285;SDS011;7744;52.172;10.668;2023-05-14T07:07:58;7.13;;;6.53;;
15285;SDS011;7744;52.172;10.668;2023-05-14T07:10:24;7.15;;;6.45;;
15285;SDS011;7744;52.172;10.668;2023-05-14T07:12:49;6.80;;;6.00;;
15285;SDS011;7744;52.172;10.668;2023-05-14T07:15:15;6.45;;;5.95;;
15285;SDS011;7744;52.172;10.668;2023-05-14T07:17:40;5.68;;;5.18;;
15285;SDS011;7744;52.172;10.668;2023-05-14T07:20:06;6.10;;;5.55;;
15285;SDS011;7744;52.172;10.668;2023-05-14T07:22:32;7.13;;;6.13;;
15285;SDS011;7744;52.172;10.668;2023-05-14T07:24:58;6.60;;;6.00;;
15285;SDS011;7744;52.172;10.668;2023-05-14T07:27:23;5.72;;;5.32;;
15285;SDS011;7744;52.172;10.668;2023-05-14T07:29:49;5.82;;;5.43;;
15285;SDS011;7744;52.172;10.668;2023-05-14T07:32:15;5.60;;;5.20;;
15285;SDS011;7744;52.172;10.668;2023-05-14T07:34:41;6.13;;;5.35;;
15285;SDS011;7744;52.172;10.668;2023-05-14T07:37:06;6.20;;;5.70;;
15285;SDS011;7744;52.172;10.668;2023-05-14T07:39:32;6.45;;;5.90;;
15285;SDS011;7744;52.172;10.668;2023-05-14T07:41:59;5.45;;;5.05;;
15285;SDS011;7744;52.172;10.668;2023-05-14T07:44:24;5.68;;;5.20;;
15285;SDS011;7744;52.172;10.668;2023-05-14T07:46:50;5.30;;;4.90;;
15285;SDS011;7744;52.172;10.668;2023-05-14T07:49:16;5.43;;;5.03;;
15285;SDS011;7744;52.172;10.668;2023-05-14T07:51:41;5.20;;;4.70;;
15285;SDS011;7744;52.172;10.668;2023-05-14T07:54:07;5.10;;;4.70;;
15285;SDS011;7744;52.172;10.668;2023-05-14T07:56:33;5.68;;;5.13;;
15285;SDS011;7744;52.172;10.668;2023-05-14T07:58:58;5.32;;;4.85;;
15285;SDS011;7744;52.172;10.668;2023-05-14T08:01:24;5.60;;;5.15;;
15285;SDS011;7744;52.172;10.668;2023-05-14T08:03:50;5.53;;;4.47;;
15285;SDS011;7744;52.172;10.668;2023-05-14T08:06:16;5.25;;;4.80;;
15285;SDS011;7744;52.172;10.668;2023-05-14T08:08:41;4.85;;;4.43;;
15285;SDS011;7744;52.172;10.668;2023-05-14T08:11:07;4.55;;;4.25;;
15285;SDS011;7744;52.172;10.668;2023-05-14T08:13:33;5.00;;;4.60;;
15285;SDS011;7744;52.172;10.668;2023-05-14T08:15:58;5.07;;;4.70;;
15285;SDS011;7744;52.172;10.668;2023-05-14T08:18:24;6.85;;;6.30;;
15285;SDS011;7744;52.172;10.668;2023-05-14T08:20:50;6.53;;;6.03;;
15285;SDS011;7744;52.172;10.668;2023-05-14T08:23:16;6.13;;;5.63;;
15285;SDS011;7744;52.172;10.668;2023-05-14T08:25:41;6.30;;;5.80;;
15285;SDS011;7744;52.172;10.668;2023-05-14T08:28:07;6.28;;;5.80;;
15285;SDS011;7744;52.172;10.668;2023-05-14T08:30:32;5.90;;;5.40;;
15285;SDS011;7744;52.172;10.668;2023-05-14T08:32:58;6.10;;;5.60;;
15285;SDS011;7744;52.172;10.668;2023-05-14T08:35:24;6.57;;;5.88;;
15285;SDS011;7744;52.172;10.668;2023-05-14T08:37:49;5.90;;;5.40;;
15285;SDS011;7744;52.172;10.668;2023-05-14T08:40:16;5.45;;;5.00;;
15285;SDS011;7744;52.172;10.668;2023-05-14T08:42:42;7.00;;;6.47;;
15285;SDS011;7744;52.172;10.668;2023-05-14T08:47:48;6.93;;;6.30;;
15285;SDS011;7744;52.172;10.668;2023-05-14T08:50:14;10.10;;;9.20;;
15285;SDS011;7744;52.172;10.668;2023-05-14T08:52:41;5.88;;;5.38;;
15285;SDS011;7744;52.172;10.668;2023-05-14T08:55:08;6.85;;;6.25;;
15285;SDS011;7744;52.172;10.668;2023-05-14T08:57:35;5.70;;;5.30;;
15285;SDS011;7744;52.172;10.668;2023-05-14T09:00:01;8.48;;;7.13;;
15285;SDS011;7744;52.172;10.668;2023-05-14T09:02:38;4.82;;;4.43;;
15285;SDS011;7744;52.172;10.668;2023-05-14T09:05:05;6.78;;;6.05;;
15285;SDS011;7744;52.172;10.668;2023-05-14T09:07:33;5.53;;;5.03;;
15285;SDS011;7744;52.172;10.668;2023-05-14T09:09:59;7.63;;;6.88;;
15285;SDS011;7744;52.172;10.668;2023-05-14T09:12:26;5.35;;;4.95;;
15285;SDS011;7744;52.172;10.668;2023-05-14T09:14:52;5.57;;;3.90;;
15285;SDS011;7744;52.172;10.668;2023-05-14T09:17:18;4.40;;;4.00;;
15285;SDS011;7744;52.172;10.668;2023-05-14T09:19:44;3.92;;;3.63;;
15285;SDS011;7744;52.172;10.668;2023-05-14T09:22:13;5.55;;;3.28;;
15285;SDS011;7744;52.172;10.668;2023-05-14T09:24:40;3.58;;;3.28;;
15285;SDS011;7744;52.172;10.668;2023-05-14T09:27:09;3.40;;;3.20;;
15285;SDS011;7744;52.172;10.668;2023-05-14T09:29:42;5.95;;;3.58;;
15285;SDS011;7744;52.172;10.668;2023-05-14T09:32:08;3.80;;;3.30;;
15285;SDS011;7744;52.172;10.668;2023-05-14T09:34:34;4.55;;;4.15;;
15285;SDS011;7744;52.172;10.668;2023-05-14T09:37:03;3.75;;;3.40;;
15285;SDS011;7744;52.172;10.668;2023-05-14T09:39:30;4.25;;;3.40;;
15285;SDS011;7744;52.172;10.668;2023-05-14T09:41:57;4.40;;;3.72;;
15285;SDS011;7744;52.172;10.668;2023-05-14T09:44:23;3.85;;;3.55;;
15285;SDS011;7744;52.172;10.668;2023-05-14T09:46:49;4.78;;;4.07;;
15285;SDS011;7744;52.172;10.668;2023-05-14T09:49:15;5.35;;;3.95;;
15285;SDS011;7744;52.172;10.668;2023-05-14T09:51:41;4.32;;;3.95;;
15285;SDS011;7744;52.172;10.668;2023-05-14T09:54:07;4.80;;;4.00;;
15285;SDS011;7744;52.172;10.668;2023-05-14T09:56:34;4.18;;;3.88;;
15285;SDS011;7744;52.172;10.668;2023-05-14T09:59:01;4.78;;;3.85;;
15285;SDS011;7744;52.172;10.668;2023-05-14T10:01:27;5.25;;;3.90;;
15285;SDS011;7744;52.172;10.668;2023-05-14T10:03:54;4.65;;;4.05;;
15285;SDS011;7744;52.172;10.668;2023-05-14T10:06:27;4.35;;;4.05;;
15285;SDS011;7744;52.172;10.668;2023-05-14T10:08:56;4.82;;;3.85;;
15285;SDS011;7744;52.172;10.668;2023-05-14T10:11:29;4.25;;;3.90;;
15285;SDS011;7744;52.172;10.668;2023-05-14T10:16:32;5.03;;;4.15;;
15285;SDS011;7744;52.172;10.668;2023-05-14T10:19:00;6.38;;;4.20;;
15285;SDS011;7744;52.172;10.668;2023-05-14T10:21:33;4.55;;;4.10;;
15285;SDS011;7744;52.172;10.668;2023-05-14T10:24:01;7.13;;;3.95;;
15285;SDS011;7744;52.172;10.668;2023-05-14T10:26:28;4.88;;;4.03;;
15285;SDS011;7744;52.172;10.668;2023-05-14T10:28:56;4.40;;;4.00;;
15285;SDS011;7744;52.172;10.668;2023-05-14T10:31:23;6.78;;;4.03;;
15285;SDS011;7744;52.172;10.668;2023-05-14T10:34:29;4.30;;;3.90;;
15285;SDS011;7744;52.172;10.668;2023-05-14T10:37:11;4.55;;;4.15;;
15285;SDS011;7744;52.172;10.668;2023-05-14T10:45:00;4.40;;;4.00;;
15285;SDS011;7744;52.172;10.668;2023-05-14T10:47:30;7.82;;;4.45;;
15285;SDS011;7744;52.172;10.668;2023-05-14T10:49:57;4.80;;;4.32;;
15285;SDS011;7744;52.172;10.668;2023-05-14T10:52:24;5.25;;;4.38;;
15285;SDS011;7744;52.172;10.668;2023-05-14T10:54:53;8.43;;;4.40;;
15285;SDS011;7744;52.172;10.668;2023-05-14T10:57:21;4.60;;;3.80;;
15285;SDS011;7744;52.172;10.668;2023-05-14T10:59:49;5.13;;;3.20;;
15285;SDS011;7744;52.172;10.668;2023-05-14T11:02:22;4.03;;;3.67;;
15285;SDS011;7744;52.172;10.668;2023-05-14T11:05:02;6.75;;;4.28;;
15285;SDS011;7744;52.172;10.668;2023-05-14T11:12:26;6.63;;;3.83;;
15285;SDS011;7744;52.172;10.668;2023-05-14T11:14:53;4.38;;;3.65;;
15285;SDS011;7744;52.172;10.668;2023-05-14T11:17:21;4.25;;;3.50;;
15285;SDS011;7744;52.172;10.668;2023-05-14T11:19:47;3.75;;;3.45;;
15285;SDS011;7744;52.172;10.668;2023-05-14T11:22:12;3.92;;;3.40;;
15285;SDS011;7744;52.172;10.668;2023-05-14T11:24:38;5.00;;;3.63;;
15285;SDS011;7744;52.172;10.668;2023-05-14T11:27:06;4.20;;;3.45;;
15285;SDS011;7744;52.172;10.668;2023-05-14T11:29:33;6.45;;;3.50;;
15285;SDS011;7744;52.172;10.668;2023-05-14T11:32:00;3.58;;;3.10;;
15285;SDS011;7744;52.172;10.668;2023-05-14T11:34:26;4.22;;;3.00;;
15285;SDS011;7744;52.172;10.668;2023-05-14T12:12:33;3.88;;;3.58;;
15285;SDS011;7744;52.172;10.668;2023-05-14T12:15:00;4.45;;;4.05;;
15285;SDS011;7744;52.172;10.668;2023-05-14T12:17:26;5.45;;;3.92;;
15285;SDS011;7744;52.172;10.668;2023-05-14T12:19:52;4.32;;;3.92;;
15285;SDS011;7744;52.172;10.668;2023-05-14T12:22:18;4.28;;;3.88;;
15285;SDS011;7744;52.172;10.668;2023-05-14T12:24:54;4.03;;;3.70;;
15285;SDS011;7744;52.172;10.668;2023-05-14T12:27:22;7.93;;;4.03;;
15285;SDS011;7744;52.172;10.668;2023-05-14T12:29:49;5.97;;;3.95;;
15285;SDS011;7744;52.172;10.668;2023-05-14T12:32:17;5.72;;;5.07;;
15285;SDS011;7744;52.172;10.668;2023-05-14T12:34:44;4.50;;;4.10;;
15285;SDS011;7744;52.172;10.668;2023-05-14T12:37:10;4.22;;;3.88;;
15285;SDS011;7744;52.172;10.668;2023-05-14T12:39:36;3.70;;;3.40;;
15285;SDS011;7744;52.172;10.668;2023-05-14T12:42:01;5.25;;;3.70;;
15285;SDS011;7744;52.172;10.668;2023-05-14T12:44:27;4.50;;;4.10;;
15285;SDS011;7744;52.172;10.668;2023-05-14T12:46:53;5.60;;;3.72;;
15285;SDS011;7744;52.172;10.668;2023-05-14T12:49:18;4.78;;;4.07;;
15285;SDS011;7744;52.172;10.668;2023-05-14T12:51:44;4.15;;;3.83;;
15285;SDS011;7744;52.172;10.668;2023-05-14T12:54:11;4.00;;;3.70;;
15285;SDS011;7744;52.172;10.668;2023-05-14T13:05:10;3.50;;;3.30;;
15285;SDS011;7744;52.172;10.668;2023-05-14T13:07:36;4.65;;;3.70;;
15285;SDS011;7744;52.172;10.668;2023-05-14T13:10:02;4.15;;;3.75;;
15285;SDS011;7744;52.172;10.668;2023-05-14T13:12:29;4.38;;;3.80;;
15285;SDS011;7744;52.172;10.668;2023-05-14T13:14:55;5.82;;;4.22;;
15285;SDS011;7744;52.172;10.668;2023-05-14T13:17:20;4.13;;;3.72;;
15285;SDS011;7744;52.172;10.668;2023-05-14T13:19:46;5.22;;;3.30;;
15285;SDS011;7744;52.172;10.668;2023-05-14T13:22:12;4.03;;;3.60;;
15285;SDS011;7744;52.172;10.668;2023-05-14T13:24:38;3.97;;;3.58;;
15285;SDS011;7744;52.172;10.668;2023-05-14T13:27:04;4.35;;;3.67;;
15285;SDS011;7744;52.172;10.668;2023-05-14T13:29:29;3.83;;;3.53;;
15285;SDS011;7744;52.172;10.668;2023-05-14T13:31:55;4.43;;;4.03;;
15285;SDS011;7744;52.172;10.668;2023-05-14T13:34:21;5.43;;;3.60;;
15285;SDS011;7744;52.172;10.668;2023-05-14T13:36:47;4.60;;;3.60;;
15285;SDS011;7744;52.172;10.668;2023-05-14T13:39:13;4.03;;;3.58;;
15285;SDS011;7744;52.172;10.668;2023-05-14T13:41:39;3.90;;;3.53;;
15285;SDS011;7744;52.172;10.668;2023-05-14T13:44:05;4.90;;;3.55;;
15285;SDS011;7744;52.172;10.668;2023-05-14T13:46:31;3.85;;;3.35;;
15285;SDS011;7744;52.172;10.668;2023-05-14T13:48:56;3.63;;;3.30;;
15285;SDS011;7744;52.172;10.668;2023-05-14T13:51:22;3.95;;;3.50;;
15285;SDS011;7744;52.172;10.668;2023-05-14T13:53:48;3.97;;;3.13;;
15285;SDS011;7744;52.172;10.668;2023-05-14T13:56:13;3.88;;;3.10;;
15285;SDS011;7744;52.172;10.668;2023-05-14T13:58:39;3.55;;;2.53;;
15285;SDS011;7744;52.172;10.668;2023-05-14T14:01:05;5.15;;;2.42;;
15285;SDS011;7744;52.172;10.668;2023-05-14T14:03:30;3.83;;;2.38;;
15285;SDS011;7744;52.172;10.668;2023-05-14T14:08:27;3.33;;;2.33;;
15285;SDS011;7744;52.172;10.668;2023-05-14T14:10:55;3.38;;;2.40;;
15285;SDS011;7744;52.172;10.668;2023-05-14T14:20:20;4.15;;;3.08;;
15285;SDS011;7744;52.172;10.668;2023-05-14T14:22:48;3.10;;;2.80;;
15285;SDS011;7744;52.172;10.668;2023-05-14T14:25:35;3.50;;;3.00;;
15285;SDS011;7744;52.172;10.668;2023-05-14T14:28:18;3.20;;;2.90;;
15285;SDS011;7744;52.172;10.668;2023-05-14T14:30:44;2.92;;;2.72;;
15285;SDS011;7744;52.172;10.668;2023-05-14T14:37:08;5.30;;;2.67;;
15285;SDS011;7744;52.172;10.668;2023-05-14T14:39:45;4.18;;;2.72;;
15285;SDS011;7744;52.172;10.668;2023-05-14T14:45:19;3.40;;;2.63;;
15285;SDS011;7744;52.172;10.668;2023-05-14T14:50:55;2.80;;;2.35;;
15285;SDS011;7744;52.172;10.668;2023-05-14T14:53:21;2.67;;;2.35;;
15285;SDS011;7744;52.172;10.668;2023-05-14T14:55:48;2.50;;;2.30;;
15285;SDS011;7744;52.172;10.668;2023-05-14T14:58:14;2.17;;;1.90;;
15285;SDS011;7744;52.172;10.668;2023-05-14T15:04:19;3.03;;;2.05;;
15285;SDS011;7744;52.172;10.668;2023-05-14T15:12:47;2.45;;;2.13;;
15285;SDS011;7744;52.172;10.668;2023-05-14T15:18:45;4.43;;;3.22;;
15285;SDS011;7744;52.172;10.668;2023-05-14T15:24:26;2.92;;;2.63;;
15285;SDS011;7744;52.172;10.668;2023-05-14T15:30:42;2.88;;;2.60;;
15285;SDS011;7744;52.172;10.668;2023-05-14T15:36:52;3.20;;;2.55;;
15285;SDS011;7744;52.172;10.668;2023-05-14T15:39:17;3.92;;;3.33;;
15285;SDS011;7744;52.172;10.668;2023-05-14T15:41:43;4.90;;;3.70;;
15285;SDS011;7744;52.172;10.668;2023-05-14T15:44:09;3.50;;;2.72;;
15285;SDS011;7744;52.172;10.668;2023-05-14T15:46:34;5.05;;;4.15;;
15285;SDS011;7744;52.172;10.668;2023-05-14T15:49:01;9.25;;;7.45;;
15285;SDS011;7744;52.172;10.668;2023-05-14T15:51:27;4.30;;;3.90;;
15285;SDS011;7744;52.172;10.668;2023-05-14T15:53:53;4.93;;;3.97;;
15285;SDS011;7744;52.172;10.668;2023-05-14T15:56:18;3.75;;;3.42;;
15285;SDS011;7744;52.172;10.668;2023-05-14T15:58:45;5.03;;;3.10;;
15285;SDS011;7744;52.172;10.668;2023-05-14T16:01:10;4.85;;;4.40;;
15285;SDS011;7744;52.172;10.668;2023-05-14T16:03:36;3.47;;;2.97;;
15285;SDS011;7744;52.172;10.668;2023-05-14T16:06:02;3.72;;;3.42;;
15285;SDS011;7744;52.172;10.668;2023-05-14T16:08:27;5.32;;;3.83;;
15285;SDS011;7744;52.172;10.668;2023-05-14T16:10:53;3.58;;;3.28;;
15285;SDS011;7744;52.172;10.668;2023-05-14T16:13:19;3.72;;;3.15;;
15285;SDS011;7744;52.172;10.668;2023-05-14T16:15:45;6.72;;;3.22;;
15285;SDS011;7744;52.172;10.668;2023-05-14T16:18:11;5.40;;;2.80;;
15285;SDS011;7744;52.172;10.668;2023-05-14T16:20:36;4.35;;;2.70;;
15285;SDS011;7744;52.172;10.668;2023-05-14T16:23:02;3.28;;;2.90;;
15285;SDS011;7744;52.172;10.668;2023-05-14T16:25:28;3.40;;;3.10;;
15285;SDS011;7744;52.172;10.668;2023-05-14T16:27:54;3.83;;;3.00;;
15285;SDS011;7744;52.172;10.668;2023-05-14T16:30:20;4.72;;;3.30;;
15285;SDS011;7744;52.172;10.668;2023-05-14T16:32:45;2.80;;;2.60;;
15285;SDS011;7744;52.172;10.668;2023-05-14T16:35:13;5.40;;;3.10;;
15285;SDS011;7744;52.172;10.668;2023-05-14T16:37:39;3.45;;;3.13;;
15285;SDS011;7744;52.172;10.668;2023-05-14T16:40:05;6.03;;;3.60;;
15285;SDS011;7744;52.172;10.668;2023-05-14T16:42:33;6.85;;;4.10;;
15285;SDS011;7744;52.172;10.668;2023-05-14T16:44:58;6.30;;;4.28;;
15285;SDS011;7744;52.172;10.668;2023-05-14T16:47:24;7.03;;;5.90;;
15285;SDS011;7744;52.172;10.668;2023-05-14T16:49:49;8.25;;;5.97;;
15285;SDS011;7744;52.172;10.668;2023-05-14T16:52:15;15.90;;;10.68;;
15285;SDS011;7744;52.172;10.668;2023-05-14T16:54:40;9.65;;;6.90;;
15285;SDS011;7744;52.172;10.668;2023-05-14T16:57:06;11.13;;;6.65;;
15285;SDS011;7744;52.172;10.668;2023-05-14T16:59:31;5.75;;;4.13;;
15285;SDS011;7744;52.172;10.668;2023-05-14T17:01:57;3.45;;;3.15;;
15285;SDS011;7744;52.172;10.668;2023-05-14T17:04:23;3.60;;;3.30;;
15285;SDS011;7744;52.172;10.668;2023-05-14T17:06:50;6.00;;;3.78;;
15285;SDS011;7744;52.172;10.668;2023-05-14T17:09:16;3.55;;;2.92;;
15285;SDS011;7744;52.172;10.668;2023-05-14T17:11:41;3.17;;;2.80;;
15285;SDS011;7744;52.172;10.668;2023-05-14T17:14:07;3.83;;;3.40;;
15285;SDS011;7744;52.172;10.668;2023-05-14T17:16:32;3.88;;;3.30;;
15285;SDS011;7744;52.172;10.668;2023-05-14T17:18:58;3.40;;;3.05;;
15285;SDS011;7744;52.172;10.668;2023-05-14T17:21:23;5.70;;;2.88;;
15285;SDS011;7744;52.172;10.668;2023-05-14T17:23:49;3.47;;;3.08;;
15285;SDS011;7744;52.172;10.668;2023-05-14T17:26:15;4.97;;;3.47;;
15285;SDS011;7744;52.172;10.668;2023-05-14T17:28:41;3.40;;;3.13;;
15285;SDS011;7744;52.172;10.668;2023-05-14T17:31:06;4.07;;;3.20;;
15285;SDS011;7744;52.172;10.668;2023-05-14T17:33:32;5.40;;;3.45;;
15285;SDS011;7744;52.172;10.668;2023-05-14T17:35:57;5.05;;;3.10;;
15285;SDS011;7744;52.172;10.668;2023-05-14T17:38:24;3.38;;;3.08;;
15285;SDS011;7744;52.172;10.668;2023-05-14T17:40:49;5.25;;;2.80;;
15285;SDS011;7744;52.172;10.668;2023-05-14T17:43:15;3.88;;;3.05;;
15285;SDS011;7744;52.172;10.668;2023-05-14T17:45:41;3.33;;;3.03;;
15285;SDS011;7744;52.172;10.668;2023-05-14T17:48:06;4.20;;;3.15;;
15285;SDS011;7744;52.172;10.668;2023-05-14T17:50:32;4.32;;;3.28;;
15285;SDS011;7744;52.172;10.668;2023-05-14T17:52:58;4.18;;;3.22;;
15285;SDS011;7744;52.172;10.668;2023-05-14T17:55:23;4.80;;;3.00;;
15285;SDS011;7744;52.172;10.668;2023-05-14T17:57:49;6.55;;;3.00;;
15285;SDS011;7744;52.172;10.668;2023-05-14T18:00:15;3.95;;;2.97;;
15285;SDS011;7744;52.172;10.668;2023-05-14T18:02:40;3.28;;;2.97;;
15285;SDS011;7744;52.172;10.668;2023-05-14T18:05:06;3.80;;;3.20;;
15285;SDS011;7744;52.172;10.668;2023-05-14T18:07:32;3.25;;;2.95;;
15285;SDS011;7744;52.172;10.668;2023-05-14T18:09:58;3.13;;;2.90;;
15285;SDS011;7744;52.172;10.668;2023-05-14T18:12:24;3.30;;;3.00;;
15285;SDS011;7744;52.172;10.668;2023-05-14T18:14:50;5.07;;;3.17;;
15285;SDS011;7744;52.172;10.668;2023-05-14T18:17:16;3.42;;;3.03;;
15285;SDS011;7744;52.172;10.668;2023-05-14T18:19:42;3.40;;;3.10;;
15285;SDS011;7744;52.172;10.668;2023-05-14T18:22:07;4.15;;;3.30;;
15285;SDS011;7744;52.172;10.668;2023-05-14T18:24:33;4.65;;;3.35;;
15285;SDS011;7744;52.172;10.668;2023-05-14T18:26:58;4.03;;;3.10;;
15285;SDS011;7744;52.172;10.668;2023-05-14T18:29:24;3.92;;;3.10;;
15285;SDS011;7744;52.172;10.668;2023-05-14T18:31:50;4.10;;;3.28;;
15285;SDS011;7744;52.172;10.668;2023-05-14T18:34:15;3.60;;;3.30;;
15285;SDS011;7744;52.172;10.668;2023-05-14T18:36:41;3.42;;;3.15;;
15285;SDS011;7744;52.172;10.668;2023-05-14T18:39:07;3.40;;;3.10;;
15285;SDS011;7744;52.172;10.668;2023-05-14T18:41:32;3.40;;;3.00;;
15285;SDS011;7744;52.172;10.668;2023-05-14T18:43:58;4.05;;;3.67;;
15285;SDS011;7744;52.172;10.668;2023-05-14T18:46:24;3.58;;;3.28;;
15285;SDS011;7744;52.172;10.668;2023-05-14T18:48:49;4.28;;;3.65;;
15285;SDS011;7744;52.172;10.668;2023-05-14T18:51:15;3.35;;;3.08;;
15285;SDS011;7744;52.172;10.668;2023-05-14T18:53:41;4.95;;;3.42;;
15285;SDS011;7744;52.172;10.668;2023-05-14T18:56:06;3.72;;;3.35;;
15285;SDS011;7744;52.172;10.668;2023-05-14T18:58:33;3.67;;;3.30;;
15285;SDS011;7744;52.172;10.668;2023-05-14T19:00:59;3.88;;;3.50;;
15285;SDS011;7744;52.172;10.668;2023-05-14T19:03:24;4.07;;;3.72;;
15285;SDS011;7744;52.172;10.668;2023-05-14T19:05:51;3.80;;;3.47;;
15285;SDS011;7744;52.172;10.668;2023-05-14T19:08:17;4.28;;;3.78;;
15285;SDS011;7744;52.172;10.668;2023-05-14T19:10:43;4.10;;;3.70;;
15285;SDS011;7744;52.172;10.668;2023-05-14T19:13:08;4.13;;;3.78;;
15285;SDS011;7744;52.172;10.668;2023-05-14T19:15:34;5.03;;;3.92;;
15285;SDS011;7744;52.172;10.668;2023-05-14T19:18:00;4.05;;;3.75;;
15285;SDS011;7744;52.172;10.668;2023-05-14T19:20:25;4.70;;;4.30;;
15285;SDS011;7744;52.172;10.668;2023-05-14T19:22:51;4.63;;;4.10;;
15285;SDS011;7744;52.172;10.668;2023-05-14T19:25:17;4.60;;;4.00;;
15285;SDS011;7744;52.172;10.668;2023-05-14T19:27:42;4.35;;;3.80;;
15285;SDS011;7744;52.172;10.668;2023-05-14T19:30:08;4.78;;;4.07;;
15285;SDS011;7744;52.172;10.668;2023-05-14T19:32:35;3.92;;;3.63;;
15285;SDS011;7744;52.172;10.668;2023-05-14T19:35:01;4.78;;;3.97;;
15285;SDS011;7744;52.172;10.668;2023-05-14T19:37:28;5.18;;;3.92;;
15285;SDS011;7744;52.172;10.668;2023-05-14T19:39:54;4.38;;;3.83;;
15285;SDS011;7744;52.172;10.668;2023-05-14T19:42:19;5.20;;;4.70;;
15285;SDS011;7744;52.172;10.668;2023-05-14T19:44:45;5.00;;;4.32;;
15285;SDS011;7744;52.172;10.668;2023-05-14T19:47:10;4.28;;;3.88;;
15285;SDS011;7744;52.172;10.668;2023-05-14T19:49:36;5.25;;;4.30;;
15285;SDS011;7744;52.172;10.668;2023-05-14T19:52:01;5.60;;;4.25;;
15285;SDS011;7744;52.172;10.668;2023-05-14T19:54:27;5.50;;;4.60;;
15285;SDS011;7744;52.172;10.668;2023-05-14T19:56:53;4.70;;;4.30;;
15285;SDS011;7744;52.172;10.668;2023-05-14T19:59:18;4.80;;;4.40;;
15285;SDS011;7744;52.172;10.668;2023-05-14T20:01:44;4.93;;;4.53;;
15285;SDS011;7744;52.172;10.668;2023-05-14T20:04:11;6.75;;;4.28;;
15285;SDS011;7744;52.172;10.668;2023-05-14T20:06:37;4.82;;;4.43;;
15285;SDS011;7744;52.172;10.668;2023-05-14T20:09:04;8.00;;;4.30;;
15285;SDS011;7744;52.172;10.668;2023-05-14T20:11:30;5.20;;;4.60;;
15285;SDS011;7744;52.172;10.668;2023-05-14T20:13:56;5.43;;;4.95;;
15285;SDS011;7744;52.172;10.668;2023-05-14T20:16:23;4.80;;;4.32;;
15285;SDS011;7744;52.172;10.668;2023-05-14T20:18:51;4.78;;;4.38;;
15285;SDS011;7744;52.172;10.668;2023-05-14T20:21:21;5.00;;;4.55;;
15285;SDS011;7744;52.172;10.668;2023-05-14T20:23:47;4.90;;;4.50;;
15285;SDS011;7744;52.172;10.668;2023-05-14T20:26:13;5.63;;;5.03;;
15285;SDS011;7744;52.172;10.668;2023-05-14T20:28:54;4.72;;;4.43;;
15285;SDS011;7744;52.172;10.668;2023-05-14T20:31:20;4.82;;;4.43;;
15285;SDS011;7744;52.172;10.668;2023-05-14T20:33:45;5.10;;;4.70;;
15285;SDS011;7744;52.172;10.668;2023-05-14T20:36:11;5.43;;;4.93;;
15285;SDS011;7744;52.172;10.668;2023-05-14T20:38:37;5.20;;;4.80;;
15285;SDS011;7744;52.172;10.668;2023-05-14T20:41:02;5.05;;;4.55;;
15285;SDS011;7744;52.172;10.668;2023-05-14T20:43:28;4.40;;;4.10;;
15285;SDS011;7744;52.172;10.668;2023-05-14T20:45:55;5.18;;;4.68;;
15285;SDS011;7744;52.172;10.668;2023-05-14T20:48:21;4.88;;;4.47;;